Cedar Park's Hourly Summary for Sunday, March 19, 2017
Hour Temp
(f)
RH
(%)
Solar Rad.
(MJ/m2)
Rainfall
(in)
Wind
(mph)
3/19/2017 12:00 AM 69 82 0 0 4.86
3/19/2017 1:00 AM 68 90 0 0 5.3
3/19/2017 2:00 AM 66 98 0 0 5
3/19/2017 3:00 AM 65 99 0 0 3.48
3/19/2017 4:00 AM 63 100 0 0 2.4
3/19/2017 5:00 AM 63 100 0 0 3.2
3/19/2017 6:00 AM 63 100 0 0 2.19
3/19/2017 7:00 AM 61 100 0 0 0.1
3/19/2017 8:00 AM 61 100 0.01 0 0.73
3/19/2017 9:00 AM 63 99 0.16 0 2.3
3/19/2017 10:00 AM 66 77 0.93 0 2.16
3/19/2017 11:00 AM 69 69 1.67 0 5.78
3/19/2017 12:00 PM 72 60 2.51 0 4.69
3/19/2017 1:00 PM 75 56 2.77 0 5.32
3/19/2017 2:00 PM 77 51 3.04 0 6.58
3/19/2017 3:00 PM 77 49 2.69 0 7.7
3/19/2017 4:00 PM 78 45 2.56 0 7.98
3/19/2017 5:00 PM 80 44 2.17 0 7.76
3/19/2017 6:00 PM 80 44 0.55 0 7.11
3/19/2017 7:00 PM 79 44 0.11 0 6.91
3/19/2017 8:00 PM 76 49 0.04 0 5.18
3/19/2017 9:00 PM 73 56 0 0 1.73
3/19/2017 10:00 PM 71 63 0 0 1.66
3/19/2017 11:00 PM 69 65 0 0 0.52
Data Summary 70 72 19.21 0.00 4.19